Time;durP1;ratioP1;P1;durP2;ratioP2;P2;SDS_P1;SDS_P2;PMS_P1;PMS_P2;Temp;Humidity;BMP_temperature;BMP_pressure;BME280_temperature;BME280_humidity;BME280_pressure;Samples;Min_cycle;Max_cycle;Signal;HPM_P1;HPM_P2
2022/04/30 00:00:14;;;;;;;9.02;5.93;;;6.40;86.20;;;;;;5051580;28;20396;-44
2022/04/30 00:02:40;;;;;;;9.90;5.45;;;6.40;86.20;;;;;;5039161;28;20055;-45
2022/04/30 00:05:08;;;;;;;10.52;6.43;;;6.40;86.40;;;;;;5051345;28;20028;-44
2022/04/30 00:07:35;;;;;;;11.40;6.18;;;6.40;86.30;;;;;;5054841;28;20140;-45
2022/04/30 00:10:01;;;;;;;16.17;6.50;;;6.40;86.40;;;;;;5045370;28;20029;-46
2022/04/30 00:12:31;;;;;;;9.95;6.47;;;6.40;86.50;;;;;;5035822;28;20391;-44
2022/04/30 00:14:57;;;;;;;10.20;7.05;;;6.40;86.60;;;;;;5054048;28;20043;-45
2022/04/30 00:17:24;;;;;;;9.50;6.38;;;6.40;86.60;;;;;;5051043;28;20108;-44
2022/04/30 00:19:50;;;;;;;8.73;7.25;;;6.40;86.70;;;;;;5015591;28;20509;-46
2022/04/30 00:22:17;;;;;;;21.30;7.07;;;6.30;86.70;;;;;;5059045;28;20114;-45
2022/04/30 00:24:45;;;;;;;12.10;6.93;;;6.20;86.90;;;;;;5034970;28;20044;-44
2022/04/30 00:27:15;;;;;;;14.40;6.88;;;6.30;87.10;;;;;;5053927;28;20388;-45
2022/04/30 00:29:46;;;;;;;13.68;7.32;;;6.20;87.10;;;;;;5036129;28;20025;-44
2022/04/30 00:32:12;;;;;;;15.95;7.88;;;6.20;87.10;;;;;;5053607;28;20039;-44
2022/04/30 00:34:39;;;;;;;14.10;6.75;;;6.20;87.20;;;;;;5049167;28;20365;-44
2022/04/30 00:37:06;;;;;;;11.55;6.75;;;6.20;87.10;;;;;;5048651;28;20342;-44
2022/04/30 00:39:34;;;;;;;9.90;6.95;;;6.20;87.10;;;;;;5052562;28;20082;-45
2022/04/30 00:42:00;;;;;;;12.93;8.30;;;6.20;87.20;;;;;;5034900;28;20029;-46
2022/04/30 00:44:26;;;;;;;9.52;7.13;;;6.20;87.20;;;;;;5053584;28;20028;-44
2022/04/30 00:46:57;;;;;;;13.02;7.45;;;6.20;87.30;;;;;;5050870;28;20060;-44
2022/04/30 00:49:24;;;;;;;15.05;8.18;;;6.20;87.40;;;;;;5035487;28;20043;-44
2022/04/30 00:51:50;;;;;;;15.63;8.13;;;6.20;87.40;;;;;;5052075;28;20049;-47
2022/04/30 00:54:22;;;;;;;15.88;8.20;;;6.20;87.40;;;;;;5053590;28;20033;-46
2022/04/30 00:56:52;;;;;;;16.98;9.25;;;6.20;87.50;;;;;;5067422;28;20071;-45
2022/04/30 00:59:22;;;;;;;13.63;8.75;;;6.20;87.60;;;;;;5049958;28;20350;-44
2022/04/30 01:01:51;;;;;;;16.15;8.50;;;6.20;87.70;;;;;;5048801;28;20048;-44
2022/04/30 01:04:21;;;;;;;15.90;8.95;;;6.20;87.70;;;;;;5027688;28;20041;-44
2022/04/30 01:06:57;;;;;;;21.48;8.70;;;6.20;87.80;;;;;;5050766;28;20045;-44
2022/04/30 01:09:29;;;;;;;19.08;9.18;;;6.20;87.70;;;;;;5052689;28;20104;-43
2022/04/30 01:12:14;;;;;;;12.73;9.10;;;6.20;87.70;;;;;;5051617;28;20030;-43
2022/04/30 01:14:42;;;;;;;13.88;8.13;;;6.10;87.70;;;;;;5052601;28;20112;-44
2022/04/30 01:17:10;;;;;;;15.32;8.52;;;6.10;87.80;;;;;;5050378;28;20080;-44
2022/04/30 01:19:43;;;;;;;17.20;8.70;;;6.10;87.80;;;;;;5052043;28;20051;-44
2022/04/30 01:22:28;;;;;;;14.52;8.68;;;6.10;87.90;;;;;;5051818;28;20021;-42
2022/04/30 01:25:00;;;;;;;17.98;9.10;;;6.10;87.90;;;;;;5050250;28;20029;-43
2022/04/30 01:27:28;;;;;;;14.10;8.50;;;6.10;87.90;;;;;;5067951;28;20087;-44
2022/04/30 01:29:56;;;;;;;13.13;8.27;;;6.10;88.00;;;;;;5067852;28;20112;-43
2022/04/30 01:38:04;;;;;;;15.32;8.82;;;6.00;88.00;;;;;;5051437;28;20051;-43
2022/04/30 01:40:32;;;;;;;13.05;8.43;;;6.00;88.10;;;;;;5051499;28;20039;-46
2022/04/30 01:43:02;;;;;;;15.07;8.43;;;6.10;88.20;;;;;;5048633;28;20094;-43
2022/04/30 01:45:29;;;;;;;15.35;9.00;;;6.10;88.20;;;;;;5051102;28;20033;-45
2022/04/30 01:48:00;;;;;;;14.20;8.98;;;6.10;88.30;;;;;;5028171;28;20029;-47
2022/04/30 01:50:26;;;;;;;16.20;9.82;;;6.20;88.20;;;;;;5040310;28;20029;-44
2022/04/30 01:52:53;;;;;;;18.08;10.02;;;6.20;88.30;;;;;;5053428;28;20017;-44
2022/04/30 01:55:20;;;;;;;15.65;9.05;;;6.20;88.10;;;;;;5050500;28;20021;-46
2022/04/30 01:57:47;;;;;;;13.73;10.30;;;6.20;88.20;;;;;;5020671;28;20045;-43
2022/04/30 02:00:14;;;;;;;17.25;9.10;;;6.30;88.10;;;;;;5040081;28;20044;-45
2022/04/30 02:02:48;;;;;;;20.70;9.82;;;6.30;88.00;;;;;;5036854;28;20135;-44
2022/04/30 02:05:16;;;;;;;14.38;8.98;;;6.30;88.00;;;;;;5047653;28;20369;-43
2022/04/30 02:08:07;;;;;;;15.77;9.20;;;6.30;87.90;;;;;;5050742;28;20588;-42
2022/04/30 02:10:42;;;;;;;14.90;8.43;;;6.30;87.90;;;;;;5051005;28;20021;-43
2022/04/30 02:13:10;;;;;;;12.88;9.20;;;6.30;87.80;;;;;;5051286;28;20021;-44
2022/04/30 02:15:41;;;;;;;14.05;8.32;;;6.40;87.80;;;;;;5051977;28;20053;-42
2022/04/30 02:18:13;;;;;;;19.25;9.68;;;6.40;87.70;;;;;;5031276;28;20033;-45
2022/04/30 02:20:43;;;;;;;15.15;9.35;;;6.40;87.70;;;;;;5051103;28;20457;-45
2022/04/30 02:23:11;;;;;;;16.30;9.23;;;6.30;87.70;;;;;;5052027;28;20029;-44
2022/04/30 02:25:41;;;;;;;15.52;9.55;;;6.30;87.80;;;;;;5032527;28;20025;-44
2022/04/30 02:28:10;;;;;;;10.90;8.60;;;6.40;87.90;;;;;;5052006;28;20070;-43
2022/04/30 02:30:42;;;;;;;17.75;9.52;;;6.40;87.90;;;;;;5036938;28;20369;-43
2022/04/30 02:33:10;;;;;;;14.20;8.68;;;6.40;87.90;;;;;;5048670;28;20037;-43
2022/04/30 02:35:43;;;;;;;12.50;9.27;;;6.40;87.90;;;;;;5050700;28;20033;-44
2022/04/30 02:38:12;;;;;;;12.57;9.18;;;6.40;87.90;;;;;;5050882;28;20461;-43
2022/04/30 02:40:43;;;;;;;14.30;9.32;;;6.40;87.90;;;;;;5050609;28;20036;-43
2022/04/30 02:43:12;;;;;;;13.52;9.25;;;6.40;88.00;;;;;;5050311;28;20091;-43
2022/04/30 02:45:42;;;;;;;15.93;9.52;;;6.40;88.00;;;;;;5050482;28;20044;-45
2022/04/30 02:48:09;;;;;;;15.88;9.07;;;6.50;88.00;;;;;;5049621;28;20029;-43
2022/04/30 02:50:36;;;;;;;17.00;9.20;;;6.50;88.00;;;;;;5033317;28;20033;-43
2022/04/30 02:53:07;;;;;;;14.77;9.02;;;6.50;88.00;;;;;;5052094;28;20545;-43
2022/04/30 02:55:35;;;;;;;16.00;9.15;;;6.50;87.90;;;;;;5051396;28;20075;-44
2022/04/30 03:00:51;;;;;;;12.65;8.13;;;6.50;88.00;;;;;;5050698;28;20504;-44
2022/04/30 03:03:19;;;;;;;22.55;9.68;;;6.40;87.90;;;;;;5031073;28;20056;-43
2022/04/30 03:05:48;;;;;;;11.20;8.70;;;6.50;88.00;;;;;;5050524;28;20029;-43
2022/04/30 03:08:32;;;;;;;10.90;7.65;;;6.50;88.00;;;;;;5067326;28;20033;-43
2022/04/30 03:11:01;;;;;;;14.75;8.27;;;6.50;88.00;;;;;;5050346;28;20079;-42
2022/04/30 03:13:30;;;;;;;16.02;9.13;;;6.50;88.00;;;;;;5053272;28;20333;-43
2022/04/30 03:21:41;;;;;;;12.73;8.70;;;6.40;87.80;;;;;;5036548;28;20104;-45
2022/04/30 03:21:42;;;;;;;18.88;8.65;;;6.40;88.10;;;;;;5033703;28;20134;-47
2022/04/30 03:24:09;;;;;;;20.92;9.60;;;6.40;88.00;;;;;;5052877;28;20010;-42
2022/04/30 03:26:36;;;;;;;14.80;9.52;;;6.30;88.00;;;;;;5037345;28;20553;-42
2022/04/30 03:29:06;;;;;;;14.95;8.63;;;6.40;88.20;;;;;;5054097;28;20117;-46
2022/04/30 03:31:35;;;;;;;16.35;7.63;;;6.30;88.20;;;;;;5047590;28;20553;-43
2022/04/30 03:34:03;;;;;;;13.50;7.78;;;6.40;88.20;;;;;;5035455;28;20037;-43
2022/04/30 03:36:30;;;;;;;14.77;9.10;;;6.40;88.10;;;;;;5052821;28;20048;-42
2022/04/30 03:38:56;;;;;;;16.35;8.00;;;6.40;88.00;;;;;;5038186;28;20025;-42
2022/04/30 03:41:23;;;;;;;16.92;8.60;;;6.30;88.00;;;;;;5036061;28;20029;-42
2022/04/30 03:43:49;;;;;;;13.75;8.45;;;6.30;88.00;;;;;;5052152;28;20033;-42
2022/04/30 03:46:17;;;;;;;11.00;8.13;;;6.40;87.90;;;;;;5042933;28;20037;-43
2022/04/30 03:48:44;;;;;;;13.65;8.18;;;6.40;87.90;;;;;;5039347;28;20038;-43
2022/04/30 03:51:10;;;;;;;13.63;8.77;;;6.30;87.80;;;;;;5054231;28;20045;-43
2022/04/30 03:53:37;;;;;;;14.13;8.70;;;6.30;87.80;;;;;;5053263;28;20466;-42
2022/04/30 03:56:03;;;;;;;14.02;9.52;;;6.30;87.80;;;;;;5053528;28;20096;-42
2022/04/30 03:58:37;;;;;;;16.52;9.45;;;6.30;87.90;;;;;;5055399;28;20025;-43
2022/04/30 04:01:04;;;;;;;17.60;9.07;;;6.30;87.90;;;;;;5052772;28;20021;-45
2022/04/30 04:03:31;;;;;;;14.35;9.02;;;6.30;87.80;;;;;;5048406;28;20028;-43
2022/04/30 04:05:58;;;;;;;13.43;8.75;;;6.30;87.80;;;;;;5053682;28;20107;-45
2022/04/30 04:08:30;;;;;;;16.13;9.05;;;6.30;87.80;;;;;;5054410;28;20393;-43
2022/04/30 04:10:57;;;;;;;13.02;8.85;;;6.30;87.70;;;;;;5062739;28;20044;-44
2022/04/30 04:18:56;;;;;;;12.45;8.95;;;6.40;87.80;;;;;;5053168;28;20043;-42
2022/04/30 04:21:23;;;;;;;13.48;9.57;;;6.40;87.60;;;;;;5053230;28;20036;-41
2022/04/30 04:26:35;;;;;;;12.95;8.50;;;6.40;87.40;;;;;;5053079;28;20040;-43
2022/04/30 04:29:02;;;;;;;13.57;8.43;;;6.40;87.40;;;;;;5052766;28;20443;-43
2022/04/30 04:31:29;;;;;;;10.48;8.38;;;6.40;87.50;;;;;;5052944;28;20037;-42
2022/04/30 04:33:56;;;;;;;13.85;9.68;;;6.40;87.50;;;;;;5054251;28;20029;-43
2022/04/30 04:36:22;;;;;;;13.73;8.80;;;6.50;87.50;;;;;;5030853;28;20052;-46
2022/04/30 04:38:49;;;;;;;15.68;9.18;;;6.50;87.50;;;;;;5052940;28;20043;-45
2022/04/30 04:41:16;;;;;;;14.85;9.18;;;6.60;87.50;;;;;;5042928;28;20516;-43
2022/04/30 04:43:45;;;;;;;12.27;8.52;;;6.70;87.50;;;;;;5033698;28;20120;-44
2022/04/30 04:46:13;;;;;;;13.67;8.70;;;6.80;87.40;;;;;;5042633;28;20032;-43
2022/04/30 04:48:42;;;;;;;10.38;7.95;;;6.90;87.30;;;;;;5034977;28;20088;-41
2022/04/30 04:51:09;;;;;;;12.90;9.43;;;6.90;87.30;;;;;;5031858;28;20046;-44
2022/04/30 04:53:36;;;;;;;12.68;8.20;;;7.10;87.30;;;;;;5023846;28;20091;-44
2022/04/30 04:56:03;;;;;;;15.00;9.95;;;7.20;87.20;;;;;;5023452;28;20029;-43
2022/04/30 04:58:30;;;;;;;13.48;9.25;;;7.40;87.20;;;;;;5023125;28;20343;-44
2022/04/30 05:01:00;;;;;;;12.93;8.63;;;7.40;86.90;;;;;;5017481;28;20057;-46
2022/04/30 05:03:29;;;;;;;;;;;7.40;87.00;;;;;;5013888;28;20108;-43
2022/04/30 05:05:56;;;;;;;17.85;10.23;;;7.40;87.10;;;;;;5028841;28;19961;-43
2022/04/30 05:08:23;;;;;;;14.95;9.23;;;7.40;87.10;;;;;;5005324;28;20052;-45
2022/04/30 05:10:53;;;;;;;14.63;7.80;;;7.50;87.00;;;;;;5024113;28;20025;-42
2022/04/30 05:13:19;;;;;;;;;;;7.40;87.00;;;;;;5024094;28;20026;-42
2022/04/30 05:15:48;;;;;;;19.40;7.95;;;7.50;87.10;;;;;;5022154;28;19936;-43
2022/04/30 05:18:20;;;;;;;14.00;8.63;;;7.60;87.00;;;;;;5022020;28;20076;-42
2022/04/30 05:20:46;;;;;;;12.35;9.07;;;7.60;86.90;;;;;;5020422;28;20037;-42
2022/04/30 05:23:14;;;;;;;17.52;8.73;;;7.60;86.90;;;;;;5021612;28;20698;-43
2022/04/30 05:25:43;;;;;;;12.85;7.65;;;7.80;87.00;;;;;;5021618;28;20036;-43
2022/04/30 05:28:10;;;;;;;11.95;7.80;;;8.00;86.80;;;;;;5019966;28;20041;-43
2022/04/30 05:30:42;;;;;;;14.73;7.80;;;8.00;86.30;;;;;;5006098;28;20036;-44
2022/04/30 05:33:12;;;;;;;13.10;8.25;;;7.90;86.20;;;;;;5016720;28;20061;-43
2022/04/30 05:35:38;;;;;;;9.50;7.45;;;7.90;86.40;;;;;;5005093;28;20339;-43
2022/04/30 05:38:04;;;;;;;9.43;6.70;;;8.20;86.70;;;;;;5013236;28;20451;-42
2022/04/30 05:40:31;;;;;;;8.82;6.82;;;8.30;86.50;;;;;;5016575;28;20025;-45
2022/04/30 05:42:58;;;;;;;10.82;7.28;;;8.30;86.20;;;;;;5023931;28;20387;-42
2022/04/30 05:45:25;;;;;;;12.10;6.53;;;8.40;86.30;;;;;;5020937;28;20022;-45
2022/04/30 05:47:54;;;;;;;11.77;6.95;;;8.40;85.80;;;;;;5024704;28;20041;-45
2022/04/30 05:50:23;;;;;;;14.25;7.22;;;8.50;85.60;;;;;;5024681;28;20107;-43
2022/04/30 05:52:51;;;;;;;12.38;8.55;;;8.40;85.10;;;;;;5032233;28;20450;-45
2022/04/30 05:55:18;;;;;;;13.70;7.50;;;8.50;85.20;;;;;;5032588;28;21700;-43
2022/04/30 05:57:44;;;;;;;10.90;6.80;;;8.40;84.80;;;;;;5032642;28;20041;-43
2022/04/30 06:00:14;;;;;;;11.05;8.50;;;8.40;84.60;;;;;;5031909;28;20026;-44
2022/04/30 06:02:41;;;;;;;10.52;6.07;;;8.50;84.90;;;;;;5034683;28;20041;-44
2022/04/30 06:05:08;;;;;;;8.95;6.50;;;8.60;84.50;;;;;;5032250;28;20037;-44
2022/04/30 06:07:36;;;;;;;9.20;6.25;;;8.90;84.80;;;;;;5034652;28;20117;-44
2022/04/30 06:10:05;;;;;;;8.25;6.43;;;8.90;83.60;;;;;;5032585;28;20465;-45
2022/04/30 06:12:35;;;;;;;10.50;5.57;;;8.90;83.20;;;;;;5033071;28;20048;-42
2022/04/30 06:15:02;;;;;;;9.88;5.72;;;8.80;82.70;;;;;;5031986;28;20431;-43
2022/04/30 06:17:33;;;;;;;8.00;5.35;;;8.80;83.00;;;;;;5031189;28;20044;-43
2022/04/30 06:20:00;;;;;;;12.00;5.82;;;8.80;82.90;;;;;;5018470;28;20056;-44
2022/04/30 06:22:27;;;;;;;10.10;5.40;;;8.90;83.20;;;;;;5032663;28;20094;-44
2022/04/30 06:24:54;;;;;;;8.57;6.15;;;9.10;83.20;;;;;;5031717;28;20041;-44
2022/04/30 06:27:26;;;;;;;11.50;5.25;;;9.10;82.80;;;;;;5031749;28;20485;-43
2022/04/30 06:29:52;;;;;;;9.82;5.88;;;9.10;82.10;;;;;;5031337;28;20041;-45
2022/04/30 06:32:21;;;;;;;11.10;6.03;;;9.00;81.70;;;;;;5031535;28;20041;-44
2022/04/30 06:34:50;;;;;;;8.07;5.85;;;9.00;81.80;;;;;;5031764;28;20059;-45
2022/04/30 06:37:17;;;;;;;7.50;5.23;;;9.30;82.20;;;;;;5032218;28;20048;-43
2022/04/30 06:39:45;;;;;;;9.30;4.88;;;9.30;81.70;;;;;;5012779;28;20038;-44
2022/04/30 06:42:12;;;;;;;7.82;4.78;;;9.20;80.80;;;;;;5031481;28;20029;-43
2022/04/30 06:44:38;;;;;;;10.95;5.20;;;9.20;80.20;;;;;;5016230;28;20044;-45
2022/04/30 06:47:05;;;;;;;11.32;5.25;;;9.10;79.80;;;;;;5028526;28;20041;-46
2022/04/30 06:49:31;;;;;;;6.80;5.15;;;9.10;80.00;;;;;;5034415;28;20059;-44
2022/04/30 06:51:58;;;;;;;7.72;4.28;;;9.00;79.70;;;;;;5021692;28;20057;-44
2022/04/30 06:57:16;;;;;;;8.25;4.00;;;9.00;79.60;;;;;;4992025;28;20032;-44
2022/04/30 06:59:45;;;;;;;8.32;3.92;;;8.90;79.50;;;;;;5014022;28;20034;-44
2022/04/30 07:02:21;;;;;;;6.95;4.57;;;8.90;79.30;;;;;;5025246;28;20497;-44
2022/04/30 07:04:51;;;;;;;8.18;4.72;;;8.90;79.10;;;;;;5016257;28;20079;-44
2022/04/30 07:07:24;;;;;;;9.50;4.53;;;8.80;79.50;;;;;;5015570;28;20048;-45
2022/04/30 07:09:53;;;;;;;8.20;4.97;;;8.80;79.70;;;;;;5013096;28;20068;-45
2022/04/30 07:12:20;;;;;;;6.43;5.60;;;8.90;80.00;;;;;;5033770;28;20455;-46
2022/04/30 07:14:48;;;;;;;10.20;5.60;;;8.90;80.20;;;;;;5018592;28;20100;-45
2022/04/30 07:17:16;;;;;;;8.35;4.97;;;9.00;80.40;;;;;;5013480;28;20774;-47
2022/04/30 07:19:43;;;;;;;5.18;3.10;;;9.30;80.20;;;;;;5014608;28;20060;-45
2022/04/30 07:22:10;;;;;;;8.57;3.97;;;9.40;78.20;;;;;;5015636;28;20068;-47
2022/04/30 07:24:37;;;;;;;7.25;4.22;;;9.70;77.50;;;;;;5015433;28;20105;-44
2022/04/30 07:27:04;;;;;;;7.72;3.65;;;10.00;76.90;;;;;;5015463;28;20030;-45
2022/04/30 07:29:32;;;;;;;6.63;3.38;;;10.10;75.30;;;;;;5013248;28;20033;-45
2022/04/30 07:31:59;;;;;;;7.50;2.88;;;10.40;75.00;;;;;;4998262;28;20084;-47
2022/04/30 07:34:27;;;;;;;6.95;2.85;;;10.80;73.80;;;;;;5012681;28;20029;-45
2022/04/30 07:36:55;;;;;;;7.22;2.30;;;11.30;71.50;;;;;;5013469;28;20406;-45
2022/04/30 07:39:25;;;;;;;11.20;2.75;;;11.90;70.00;;;;;;5012336;28;20029;-46
2022/04/30 07:41:55;;;;;;;4.43;2.50;;;12.40;68.90;;;;;;5015588;28;20061;-45
2022/04/30 07:44:22;;;;;;;5.60;2.60;;;12.80;67.00;;;;;;5015065;28;20064;-45
2022/04/30 07:46:51;;;;;;;3.63;1.95;;;13.40;65.40;;;;;;5047776;28;20348;-45
2022/04/30 07:49:20;;;;;;;4.63;2.05;;;13.60;63.50;;;;;;5014470;28;20371;-45
2022/04/30 07:51:53;;;;;;;6.63;2.40;;;14.10;63.00;;;;;;5024857;28;20039;-46
2022/04/30 07:54:20;;;;;;;4.82;2.30;;;14.30;61.60;;;;;;5033951;28;20017;-45
2022/04/30 07:56:50;;;;;;;4.88;2.05;;;14.80;61.00;;;;;;5035168;28;20068;-47
2022/04/30 07:59:17;;;;;;;3.83;1.60;;;15.20;58.00;;;;;;5036073;28;20462;-46
2022/04/30 08:01:44;;;;;;;3.58;2.00;;;15.40;57.80;;;;;;5051942;28;20037;-45
2022/04/30 08:04:11;;;;;;;4.88;1.90;;;15.60;57.30;;;;;;5036741;28;20116;-46
2022/04/30 08:06:37;;;;;;;3.78;2.08;;;16.30;56.60;;;;;;5034237;28;20041;-46
2022/04/30 08:09:04;;;;;;;4.50;2.10;;;16.20;55.40;;;;;;5034545;28;20061;-46
2022/04/30 08:11:31;;;;;;;4.47;2.08;;;16.80;54.30;;;;;;5034972;28;20044;-46
2022/04/30 08:13:57;;;;;;;5.45;2.35;;;16.80;52.40;;;;;;5034267;28;20108;-45
2022/04/30 08:16:24;;;;;;;4.95;2.08;;;16.60;52.60;;;;;;5034783;28;20477;-46
2022/04/30 08:18:51;;;;;;;4.97;2.45;;;16.50;54.80;;;;;;5035374;28;20026;-45
2022/04/30 08:21:18;;;;;;;4.28;2.00;;;16.50;51.90;;;;;;5027229;28;20374;-46
2022/04/30 08:23:45;;;;;;;2.92;2.00;;;16.30;53.90;;;;;;5032353;28;20029;-45
2022/04/30 08:26:12;;;;;;;4.22;2.17;;;16.20;53.40;;;;;;5051181;28;20056;-50
2022/04/30 08:28:39;;;;;;;4.80;2.22;;;15.20;54.20;;;;;;5033980;28;20056;-46
2022/04/30 08:31:05;;;;;;;6.38;1.92;;;14.30;55.60;;;;;;5033255;28;20029;-45
2022/04/30 08:33:32;;;;;;;5.03;2.13;;;13.60;57.20;;;;;;5033411;28;20316;-47
2022/04/30 08:35:59;;;;;;;5.03;2.45;;;12.90;60.90;;;;;;5034125;28;20094;-45
2022/04/30 08:38:26;;;;;;;3.75;1.77;;;13.30;59.80;;;;;;5033729;28;20025;-46
2022/04/30 08:40:53;;;;;;;3.60;2.03;;;13.90;56.70;;;;;;5033706;28;20037;-45
2022/04/30 08:43:21;;;;;;;4.15;2.00;;;14.60;58.00;;;;;;5034006;28;20120;-45
2022/04/30 08:45:48;;;;;;;6.13;2.40;;;15.20;53.60;;;;;;5033859;28;20425;-45
2022/04/30 08:48:16;;;;;;;4.70;2.20;;;15.10;56.80;;;;;;5034439;28;20030;-45
2022/04/30 08:50:45;;;;;;;4.13;2.00;;;15.50;56.30;;;;;;5035150;28;20033;-46
2022/04/30 08:53:13;;;;;;;3.75;1.88;;;15.80;57.60;;;;;;5036597;28;20033;-47
2022/04/30 08:55:40;;;;;;;6.47;2.72;;;16.00;54.10;;;;;;5052896;28;20131;-46
2022/04/30 08:58:07;;;;;;;3.45;2.20;;;15.90;56.10;;;;;;5034887;28;20029;-45
2022/04/30 09:00:45;;;;;;;7.07;2.50;;;15.90;55.90;;;;;;5046844;28;20033;-46
2022/04/30 09:03:15;;;;;;;6.07;2.67;;;15.80;56.60;;;;;;5047053;28;20131;-45
2022/04/30 09:05:42;;;;;;;6.40;2.47;;;15.80;56.40;;;;;;5051212;28;20037;-49
2022/04/30 09:08:10;;;;;;;5.45;2.05;;;16.00;56.20;;;;;;5049755;28;20033;-45
2022/04/30 09:10:37;;;;;;;3.63;1.80;;;16.40;55.40;;;;;;5050871;28;20413;-45
2022/04/30 09:13:09;;;;;;;5.63;3.25;;;16.20;55.00;;;;;;5054074;28;20060;-45
2022/04/30 09:15:39;;;;;;;5.05;2.55;;;15.80;56.80;;;;;;5048627;28;20385;-45
2022/04/30 09:18:08;;;;;;;5.32;2.22;;;15.30;56.30;;;;;;5051946;28;20098;-46
2022/04/30 09:20:48;;;;;;;4.95;2.17;;;15.20;57.20;;;;;;5053028;28;20035;-45
2022/04/30 09:23:31;;;;;;;5.18;2.70;;;15.20;56.60;;;;;;5051240;28;20029;-45
2022/04/30 09:25:59;;;;;;;4.40;2.70;;;14.80;60.50;;;;;;5051833;28;20388;-45
2022/04/30 09:28:28;;;;;;;4.95;2.22;;;14.60;60.00;;;;;;5058311;28;20025;-45
2022/04/30 09:31:14;;;;;;;4.65;2.00;;;14.90;60.00;;;;;;5052798;28;20040;-45
2022/04/30 09:37:41;;;;;;;4.18;2.72;;;14.60;57.70;;;;;;5050988;28;20021;-45
2022/04/30 09:39:34;;;;;;;4.80;2.17;;;15.40;59.10;;;;;;5051817;28;20392;-48
2022/04/30 09:42:06;;;;;;;4.20;2.50;;;15.30;56.60;;;;;;5052212;28;20029;-45
2022/04/30 09:44:37;;;;;;;5.55;2.58;;;15.30;57.40;;;;;;5051873;28;20036;-45
2022/04/30 09:47:06;;;;;;;3.63;1.90;;;15.60;56.70;;;;;;5052575;28;20529;-45
2022/04/30 09:55:08;;;;;;;3.45;2.50;;;15.40;56.00;;;;;;5052178;28;19920;-46
2022/04/30 09:57:38;;;;;;;3.67;2.50;;;15.40;56.10;;;;;;5051084;28;20020;-48
2022/04/30 10:00:08;;;;;;;4.82;2.78;;;15.20;56.00;;;;;;5046888;28;20065;-45
2022/04/30 10:02:35;;;;;;;;;;;15.30;58.30;;;;;;5042188;28;20071;-45
2022/04/30 10:05:03;;;;;;;4.20;2.70;;;15.00;59.00;;;;;;5034211;28;20035;-45
2022/04/30 10:07:33;;;;;;;7.57;3.03;;;14.50;59.50;;;;;;5032933;28;20036;-45
2022/04/30 10:10:06;;;;;;;;;;;14.80;59.00;;;;;;5048944;28;20021;-46
2022/04/30 10:13:09;;;;;;;4.47;2.75;;;14.90;58.60;;;;;;5029895;28;19975;-46
2022/04/30 10:15:54;;;;;;;5.25;2.83;;;15.00;59.00;;;;;;5037078;28;20021;-46
2022/04/30 10:18:24;;;;;;;4.25;2.85;;;15.40;59.00;;;;;;5051365;28;20612;-46
2022/04/30 10:20:56;;;;;;;5.38;2.88;;;15.10;58.90;;;;;;5034373;28;20338;-45
2022/04/30 10:23:24;;;;;;;6.45;3.05;;;14.90;57.50;;;;;;5049785;28;20021;-45
2022/04/30 10:25:50;;;;;;;5.60;2.90;;;14.20;60.60;;;;;;5051964;28;20353;-45
2022/04/30 10:28:24;;;;;;;6.43;2.90;;;14.30;60.10;;;;;;5037862;28;20040;-46
2022/04/30 10:31:02;;;;;;;4.45;3.15;;;14.00;60.60;;;;;;5040813;28;20496;-49
2022/04/30 10:33:30;;;;;;;4.93;3.50;;;14.10;61.20;;;;;;5034257;28;20053;-46
2022/04/30 10:36:11;;;;;;;6.00;3.75;;;13.80;62.10;;;;;;5040718;28;20029;-47
2022/04/30 10:38:39;;;;;;;4.93;2.90;;;14.10;62.40;;;;;;5050743;28;20472;-45
2022/04/30 10:41:10;;;;;;;4.47;3.10;;;14.20;58.90;;;;;;5051930;28;20436;-47
2022/04/30 10:43:42;;;;;;;4.32;3.13;;;14.20;59.00;;;;;;5050742;28;20438;-46
2022/04/30 10:46:19;;;;;;;5.25;3.28;;;14.30;58.20;;;;;;5052551;28;20056;-46
2022/04/30 10:48:46;;;;;;;8.52;3.05;;;14.50;59.00;;;;;;5048738;28;20455;-47
2022/04/30 10:51:16;;;;;;;4.80;3.25;;;14.30;62.50;;;;;;5051415;28;20049;-46
2022/04/30 10:53:44;;;;;;;4.20;3.20;;;14.80;60.30;;;;;;5066950;28;20036;-45
2022/04/30 10:56:15;;;;;;;7.85;4.07;;;14.80;61.00;;;;;;5051869;28;20163;-47
2022/04/30 10:58:44;;;;;;;4.95;3.60;;;15.10;58.80;;;;;;5046845;28;20513;-47
2022/04/30 11:01:28;;;;;;;5.70;2.58;;;15.20;57.90;;;;;;5023166;28;20044;-45
2022/04/30 11:03:55;;;;;;;6.32;3.05;;;15.00;57.60;;;;;;5036342;28;20033;-45
2022/04/30 11:06:24;;;;;;;4.28;3.08;;;14.80;60.40;;;;;;5052776;28;20025;-48
2022/04/30 11:09:03;;;;;;;6.15;3.72;;;14.90;60.40;;;;;;5050494;28;20111;-46
2022/04/30 11:11:31;;;;;;;4.65;2.83;;;14.50;60.00;;;;;;5034678;28;20108;-50
2022/04/30 11:14:16;;;;;;;6.47;3.92;;;14.20;60.80;;;;;;5049635;28;20025;-45
2022/04/30 11:16:49;;;;;;;5.97;3.42;;;14.10;62.00;;;;;;5052387;28;20446;-47
2022/04/30 11:19:18;;;;;;;5.05;3.65;;;14.30;61.40;;;;;;5050814;28;20119;-46
2022/04/30 11:22:05;;;;;;;7.35;3.63;;;14.40;61.20;;;;;;5038354;28;20049;-47
2022/04/30 11:24:32;;;;;;;5.90;3.60;;;14.60;63.50;;;;;;5014687;28;20030;-46
2022/04/30 11:27:03;;;;;;;6.35;3.88;;;14.30;60.60;;;;;;5048046;28;20021;-45
2022/04/30 11:29:32;;;;;;;6.05;2.97;;;13.80;61.40;;;;;;5034358;28;20438;-49
2022/04/30 11:31:59;;;;;;;6.38;3.20;;;13.90;64.10;;;;;;5038917;28;20030;-45
2022/04/30 11:34:27;;;;;;;7.85;3.40;;;14.30;59.70;;;;;;5038225;28;20025;-45
2022/04/30 11:36:58;;;;;;;7.25;3.55;;;13.70;59.50;;;;;;5055877;28;20021;-50
2022/04/30 11:39:27;;;;;;;6.60;3.92;;;13.60;59.60;;;;;;5053007;28;20357;-47
2022/04/30 11:41:59;;;;;;;7.40;3.95;;;14.10;63.40;;;;;;5054432;28;20029;-45
2022/04/30 11:44:29;;;;;;;5.13;3.00;;;14.60;59.40;;;;;;5054638;28;20044;-47
2022/04/30 11:46:56;;;;;;;8.30;3.60;;;14.90;58.30;;;;;;5038209;28;20420;-47
2022/04/30 11:49:25;;;;;;;6.10;3.35;;;15.30;58.30;;;;;;5047430;28;20099;-47
2022/04/30 11:51:55;;;;;;;6.28;3.33;;;14.70;58.70;;;;;;5035899;28;20107;-50
2022/04/30 11:54:24;;;;;;;11.38;4.05;;;14.40;58.50;;;;;;5015303;28;20022;-45
2022/04/30 11:56:51;;;;;;;8.27;3.30;;;14.40;60.00;;;;;;5015590;28;20021;-48
2022/04/30 11:59:39;;;;;;;6.68;3.90;;;14.40;60.80;;;;;;5017078;28;20026;-48
2022/04/30 12:02:11;;;;;;;6.15;3.92;;;13.80;59.20;;;;;;5025649;28;20030;-46
2022/04/30 12:04:41;;;;;;;6.50;4.40;;;13.70;60.10;;;;;;5011131;28;20081;-48
2022/04/30 12:07:11;;;;;;;6.22;3.20;;;13.50;60.40;;;;;;5030269;28;20057;-48
2022/04/30 12:09:43;;;;;;;6.13;3.92;;;13.10;59.50;;;;;;5014925;28;20072;-46
2022/04/30 12:12:28;;;;;;;7.50;4.68;;;12.60;61.60;;;;;;5014462;28;20034;-45
2022/04/30 12:14:57;;;;;;;10.35;5.43;;;12.60;64.00;;;;;;5014071;28;20475;-50
2022/04/30 12:17:31;;;;;;;5.93;3.70;;;12.50;64.30;;;;;;5014758;28;20029;-51
2022/04/30 12:25:33;;;;;;;6.47;4.78;;;12.60;64.30;;;;;;5013024;28;20028;-46
2022/04/30 12:28:03;;;;;;;7.25;3.85;;;12.60;62.90;;;;;;5013479;28;20041;-44
2022/04/30 12:30:33;;;;;;;7.45;4.22;;;12.60;64.40;;;;;;5013688;28;20040;-45
2022/04/30 12:33:05;;;;;;;6.00;4.10;;;12.70;63.60;;;;;;5007538;28;20026;-45
2022/04/30 12:35:54;;;;;;;6.80;3.85;;;12.60;63.80;;;;;;5005162;28;20030;-45
2022/04/30 12:38:25;;;;;;;6.63;4.57;;;12.70;64.50;;;;;;5006133;28;20034;-47
2022/04/30 12:40:54;;;;;;;7.03;4.10;;;12.80;65.00;;;;;;5006393;28;20068;-45
2022/04/30 12:43:21;;;;;;;9.88;4.20;;;13.00;65.20;;;;;;5008129;28;20034;-46
2022/04/30 12:45:48;;;;;;;8.43;4.25;;;12.90;64.20;;;;;;5007225;28;20053;-47
2022/04/30 12:48:15;;;;;;;5.93;4.57;;;13.00;64.80;;;;;;5008352;28;20080;-47
2022/04/30 12:50:43;;;;;;;6.60;5.00;;;12.90;65.30;;;;;;5011156;28;20462;-45
2022/04/30 12:53:10;;;;;;;7.22;4.28;;;12.80;65.20;;;;;;5008102;28;20113;-45
2022/04/30 12:55:41;;;;;;;8.25;4.95;;;12.90;64.40;;;;;;5006643;28;20425;-47
2022/04/30 12:58:09;;;;;;;5.68;3.97;;;12.60;63.70;;;;;;5004982;28;20033;-48
2022/04/30 13:00:36;;;;;;;9.68;5.55;;;12.50;63.90;;;;;;5021768;28;20042;-45
2022/04/30 13:03:05;;;;;;;8.30;4.70;;;12.70;65.00;;;;;;5011680;28;20050;-49
2022/04/30 13:05:32;;;;;;;6.82;4.85;;;12.60;63.90;;;;;;5018495;28;20490;-46
2022/04/30 13:07:58;;;;;;;7.05;4.28;;;12.40;64.70;;;;;;5005086;28;20042;-48
2022/04/30 13:15:55;;;;;;;6.85;4.95;;;13.10;63.70;;;;;;5008071;28;20040;-46
2022/04/30 13:18:23;;;;;;;6.50;4.75;;;13.30;63.60;;;;;;5009747;28;20053;-48
2022/04/30 13:20:50;;;;;;;6.38;4.80;;;13.10;63.70;;;;;;4995743;28;20022;-47
2022/04/30 13:23:16;;;;;;;8.52;4.38;;;12.90;64.20;;;;;;5009416;28;20160;-45
2022/04/30 13:25:43;;;;;;;7.10;4.30;;;12.90;64.60;;;;;;5010696;28;20033;-45
2022/04/30 13:28:10;;;;;;;8.95;4.38;;;12.60;65.20;;;;;;5009454;28;20040;-45
2022/04/30 13:30:38;;;;;;;7.03;4.65;;;12.60;66.00;;;;;;5013063;28;20021;-47
2022/04/30 13:33:06;;;;;;;6.45;4.45;;;12.80;66.20;;;;;;5003722;28;20109;-48
2022/04/30 13:35:35;;;;;;;6.60;4.90;;;12.90;66.50;;;;;;5013261;28;20022;-47
2022/04/30 13:38:04;;;;;;;6.28;4.18;;;13.10;66.30;;;;;;5011742;28;20034;-50
2022/04/30 13:40:33;;;;;;;6.95;4.53;;;12.90;63.00;;;;;;5002994;28;20041;-45